sensor_id;sensor_type;location;lat;lon;timestamp;temperature;humidity
29321;DHT22;16323;51.130;6.612;2022-12-10T00:02:03;15.80;40.50
29321;DHT22;16323;51.130;6.612;2022-12-10T00:04:29;15.80;40.60
29321;DHT22;16323;51.130;6.612;2022-12-10T00:06:56;15.80;40.50
29321;DHT22;16323;51.130;6.612;2022-12-10T00:09:23;15.80;40.60
29321;DHT22;16323;51.130;6.612;2022-12-10T00:11:51;15.80;40.40
29321;DHT22;16323;51.130;6.612;2022-12-10T00:14:18;15.80;40.30
29321;DHT22;16323;51.130;6.612;2022-12-10T00:16:45;15.80;40.30
29321;DHT22;16323;51.130;6.612;2022-12-10T00:19:12;15.80;40.30
29321;DHT22;16323;51.130;6.612;2022-12-10T00:21:38;15.80;40.90
29321;DHT22;16323;51.130;6.612;2022-12-10T00:24:06;15.80;43.70
29321;DHT22;16323;51.130;6.612;2022-12-10T00:26:35;15.80;42.50
29321;DHT22;16323;51.130;6.612;2022-12-10T00:29:06;15.80;41.90
29321;DHT22;16323;51.130;6.612;2022-12-10T00:31:35;15.80;41.60
29321;DHT22;16323;51.130;6.612;2022-12-10T00:34:04;15.80;41.40
29321;DHT22;16323;51.130;6.612;2022-12-10T00:36:33;15.80;41.30
29321;DHT22;16323;51.130;6.612;2022-12-10T00:39:01;15.70;41.00
29321;DHT22;16323;51.130;6.612;2022-12-10T00:41:28;15.70;40.80
29321;DHT22;16323;51.130;6.612;2022-12-10T00:43:55;15.70;40.80
29321;DHT22;16323;51.130;6.612;2022-12-10T00:46:23;15.70;40.70
29321;DHT22;16323;51.130;6.612;2022-12-10T00:48:50;15.70;40.70
29321;DHT22;16323;51.130;6.612;2022-12-10T00:51:19;15.70;40.60
29321;DHT22;16323;51.130;6.612;2022-12-10T00:53:48;15.70;40.50
29321;DHT22;16323;51.130;6.612;2022-12-10T00:56:17;15.70;40.40
29321;DHT22;16323;51.130;6.612;2022-12-10T00:58:44;15.70;40.30
29321;DHT22;16323;51.130;6.612;2022-12-10T01:01:13;15.70;40.30
29321;DHT22;16323;51.130;6.612;2022-12-10T01:03:43;15.70;40.30
29321;DHT22;16323;51.130;6.612;2022-12-10T01:06:12;15.70;40.20
29321;DHT22;16323;51.130;6.612;2022-12-10T01:08:39;15.70;40.20
29321;DHT22;16323;51.130;6.612;2022-12-10T01:11:07;15.70;40.20
29321;DHT22;16323;51.130;6.612;2022-12-10T01:13:34;15.80;40.30
29321;DHT22;16323;51.130;6.612;2022-12-10T01:16:01;15.80;40.20
29321;DHT22;16323;51.130;6.612;2022-12-10T01:18:28;15.70;40.00
29321;DHT22;16323;51.130;6.612;2022-12-10T01:21:00;15.70;39.60
29321;DHT22;16323;51.130;6.612;2022-12-10T01:23:28;15.70;39.50
29321;DHT22;16323;51.130;6.612;2022-12-10T01:25:59;15.70;39.40
29321;DHT22;16323;51.130;6.612;2022-12-10T01:28:28;15.70;39.40
29321;DHT22;16323;51.130;6.612;2022-12-10T01:30:58;15.70;39.30
29321;DHT22;16323;51.130;6.612;2022-12-10T01:33:25;15.60;39.50
29321;DHT22;16323;51.130;6.612;2022-12-10T01:35:52;15.70;40.10
29321;DHT22;16323;51.130;6.612;2022-12-10T01:38:20;15.70;40.60
29321;DHT22;16323;51.130;6.612;2022-12-10T01:40:48;15.70;40.80
29321;DHT22;16323;51.130;6.612;2022-12-10T01:43:15;15.70;41.00
29321;DHT22;16323;51.130;6.612;2022-12-10T01:45:42;15.70;41.10
29321;DHT22;16323;51.130;6.612;2022-12-10T01:48:08;15.70;41.20
29321;DHT22;16323;51.130;6.612;2022-12-10T01:50:36;15.70;41.30
29321;DHT22;16323;51.130;6.612;2022-12-10T01:53:03;15.70;41.30
29321;DHT22;16323;51.130;6.612;2022-12-10T01:55:42;15.70;41.40
29321;DHT22;16323;51.130;6.612;2022-12-10T01:58:10;15.70;41.10
29321;DHT22;16323;51.130;6.612;2022-12-10T02:00:56;15.70;40.30
29321;DHT22;16323;51.130;6.612;2022-12-10T02:03:32;15.70;40.30
29321;DHT22;16323;51.130;6.612;2022-12-10T02:06:18;15.80;40.10
29321;DHT22;16323;51.130;6.612;2022-12-10T02:08:52;15.80;40.00
29321;DHT22;16323;51.130;6.612;2022-12-10T02:11:29;15.80;40.10
29321;DHT22;16323;51.130;6.612;2022-12-10T02:14:10;15.70;40.00
29321;DHT22;16323;51.130;6.612;2022-12-10T02:16:41;15.80;40.00
29321;DHT22;16323;51.130;6.612;2022-12-10T02:19:15;15.80;39.80
29321;DHT22;16323;51.130;6.612;2022-12-10T02:21:48;15.70;39.50
29321;DHT22;16323;51.130;6.612;2022-12-10T02:24:18;15.70;39.20
29321;DHT22;16323;51.130;6.612;2022-12-10T02:26:54;15.70;39.40
29321;DHT22;16323;51.130;6.612;2022-12-10T02:29:25;15.70;39.30
29321;DHT22;16323;51.130;6.612;2022-12-10T02:31:55;15.70;39.50
29321;DHT22;16323;51.130;6.612;2022-12-10T02:34:24;15.70;39.30
29321;DHT22;16323;51.130;6.612;2022-12-10T02:36:54;15.70;39.40
29321;DHT22;16323;51.130;6.612;2022-12-10T02:39:26;15.70;39.40
29321;DHT22;16323;51.130;6.612;2022-12-10T02:41:54;15.60;39.30
29321;DHT22;16323;51.130;6.612;2022-12-10T02:44:24;15.60;39.40
29321;DHT22;16323;51.130;6.612;2022-12-10T02:46:54;15.60;39.10
29321;DHT22;16323;51.130;6.612;2022-12-10T02:49:22;15.60;39.30
29321;DHT22;16323;51.130;6.612;2022-12-10T02:51:50;15.70;39.30
29321;DHT22;16323;51.130;6.612;2022-12-10T02:54:37;15.60;40.50
29321;DHT22;16323;51.130;6.612;2022-12-10T02:57:22;15.60;39.20
29321;DHT22;16323;51.130;6.612;2022-12-10T03:00:03;15.70;39.40
29321;DHT22;16323;51.130;6.612;2022-12-10T03:02:38;15.70;39.30
29321;DHT22;16323;51.130;6.612;2022-12-10T03:05:12;15.70;39.60
29321;DHT22;16323;51.130;6.612;2022-12-10T03:07:45;15.70;39.60
29321;DHT22;16323;51.130;6.612;2022-12-10T03:10:20;15.70;39.50
29321;DHT22;16323;51.130;6.612;2022-12-10T03:12:55;15.70;39.50
29321;DHT22;16323;51.130;6.612;2022-12-10T03:15:26;15.70;39.70
29321;DHT22;16323;51.130;6.612;2022-12-10T03:17:54;15.60;39.50
29321;DHT22;16323;51.130;6.612;2022-12-10T03:20:23;15.70;39.30
29321;DHT22;16323;51.130;6.612;2022-12-10T03:22:51;15.70;39.40
29321;DHT22;16323;51.130;6.612;2022-12-10T03:25:23;15.60;39.30
29321;DHT22;16323;51.130;6.612;2022-12-10T03:27:53;15.60;39.20
29321;DHT22;16323;51.130;6.612;2022-12-10T03:30:21;15.60;39.30
29321;DHT22;16323;51.130;6.612;2022-12-10T03:32:50;15.60;39.30
29321;DHT22;16323;51.130;6.612;2022-12-10T03:35:20;15.60;39.30
29321;DHT22;16323;51.130;6.612;2022-12-10T03:37:49;15.60;39.30
29321;DHT22;16323;51.130;6.612;2022-12-10T03:40:18;15.60;39.30
29321;DHT22;16323;51.130;6.612;2022-12-10T03:42:46;15.60;39.40
29321;DHT22;16323;51.130;6.612;2022-12-10T03:45:13;15.60;39.30
29321;DHT22;16323;51.130;6.612;2022-12-10T03:47:40;15.60;39.50
29321;DHT22;16323;51.130;6.612;2022-12-10T03:50:09;15.60;39.40
29321;DHT22;16323;51.130;6.612;2022-12-10T03:52:36;15.60;39.40
29321;DHT22;16323;51.130;6.612;2022-12-10T03:55:04;15.60;40.00
29321;DHT22;16323;51.130;6.612;2022-12-10T03:57:32;15.60;41.60
29321;DHT22;16323;51.130;6.612;2022-12-10T03:59:58;15.60;41.00
29321;DHT22;16323;51.130;6.612;2022-12-10T04:02:25;15.60;40.40
29321;DHT22;16323;51.130;6.612;2022-12-10T04:04:52;15.70;40.40
29321;DHT22;16323;51.130;6.612;2022-12-10T04:07:20;15.60;40.30
29321;DHT22;16323;51.130;6.612;2022-12-10T04:09:47;15.70;40.10
29321;DHT22;16323;51.130;6.612;2022-12-10T04:12:14;15.70;40.00
29321;DHT22;16323;51.130;6.612;2022-12-10T04:14:41;15.70;39.90
29321;DHT22;16323;51.130;6.612;2022-12-10T04:17:25;15.70;39.90
29321;DHT22;16323;51.130;6.612;2022-12-10T04:19:52;15.60;39.30
29321;DHT22;16323;51.130;6.612;2022-12-10T04:22:20;15.60;39.30
29321;DHT22;16323;51.130;6.612;2022-12-10T04:25:05;15.60;39.40
29321;DHT22;16323;51.130;6.612;2022-12-10T04:27:49;15.60;39.20
29321;DHT22;16323;51.130;6.612;2022-12-10T04:30:16;15.60;39.30
29321;DHT22;16323;51.130;6.612;2022-12-10T04:32:43;15.50;39.30
29321;DHT22;16323;51.130;6.612;2022-12-10T04:35:10;15.50;39.30
29321;DHT22;16323;51.130;6.612;2022-12-10T04:37:38;15.50;39.30
29321;DHT22;16323;51.130;6.612;2022-12-10T04:40:06;15.50;39.40
29321;DHT22;16323;51.130;6.612;2022-12-10T04:42:33;15.50;39.10
29321;DHT22;16323;51.130;6.612;2022-12-10T04:45:00;15.50;39.20
29321;DHT22;16323;51.130;6.612;2022-12-10T04:47:27;15.50;39.20
29321;DHT22;16323;51.130;6.612;2022-12-10T04:49:53;15.50;39.10
29321;DHT22;16323;51.130;6.612;2022-12-10T04:52:20;15.50;39.20
29321;DHT22;16323;51.130;6.612;2022-12-10T04:54:48;15.50;39.10
29321;DHT22;16323;51.130;6.612;2022-12-10T04:57:15;15.50;39.10
29321;DHT22;16323;51.130;6.612;2022-12-10T04:59:42;15.50;39.10
29321;DHT22;16323;51.130;6.612;2022-12-10T05:02:09;15.60;39.20
29321;DHT22;16323;51.130;6.612;2022-12-10T05:04:36;15.60;39.00
29321;DHT22;16323;51.130;6.612;2022-12-10T05:07:02;15.60;39.00
29321;DHT22;16323;51.130;6.612;2022-12-10T05:09:29;15.60;39.20
29321;DHT22;16323;51.130;6.612;2022-12-10T05:11:57;15.60;39.20
29321;DHT22;16323;51.130;6.612;2022-12-10T05:14:24;15.60;39.20
29321;DHT22;16323;51.130;6.612;2022-12-10T05:16:51;15.60;39.10
29321;DHT22;16323;51.130;6.612;2022-12-10T05:19:18;15.60;38.80
29321;DHT22;16323;51.130;6.612;2022-12-10T05:21:47;15.60;38.70
29321;DHT22;16323;51.130;6.612;2022-12-10T05:24:32;15.60;38.70
29321;DHT22;16323;51.130;6.612;2022-12-10T05:27:00;15.60;38.80
29321;DHT22;16323;51.130;6.612;2022-12-10T05:29:27;15.60;38.70
29321;DHT22;16323;51.130;6.612;2022-12-10T05:31:54;15.60;38.70
29321;DHT22;16323;51.130;6.612;2022-12-10T05:34:20;15.60;38.90
29321;DHT22;16323;51.130;6.612;2022-12-10T05:36:47;15.50;38.80
29321;DHT22;16323;51.130;6.612;2022-12-10T05:39:14;15.50;38.80
29321;DHT22;16323;51.130;6.612;2022-12-10T05:41:41;15.50;38.80
29321;DHT22;16323;51.130;6.612;2022-12-10T05:44:10;15.50;38.80
29321;DHT22;16323;51.130;6.612;2022-12-10T05:46:37;15.50;38.80
29321;DHT22;16323;51.130;6.612;2022-12-10T05:49:06;15.50;38.80
29321;DHT22;16323;51.130;6.612;2022-12-10T05:51:35;15.50;38.80
29321;DHT22;16323;51.130;6.612;2022-12-10T05:54:04;15.50;38.80
29321;DHT22;16323;51.130;6.612;2022-12-10T05:56:31;15.50;38.80
29321;DHT22;16323;51.130;6.612;2022-12-10T05:59:00;15.50;38.80
29321;DHT22;16323;51.130;6.612;2022-12-10T06:01:30;15.50;38.80
29321;DHT22;16323;51.130;6.612;2022-12-10T06:03:58;15.60;39.00
29321;DHT22;16323;51.130;6.612;2022-12-10T06:06:28;15.60;39.00
29321;DHT22;16323;51.130;6.612;2022-12-10T06:08:56;15.60;38.90
29321;DHT22;16323;51.130;6.612;2022-12-10T06:11:23;15.60;38.80
29321;DHT22;16323;51.130;6.612;2022-12-10T06:13:52;15.60;38.90
29321;DHT22;16323;51.130;6.612;2022-12-10T06:16:20;15.60;38.90
29321;DHT22;16323;51.130;6.612;2022-12-10T06:18:48;15.60;38.70
29321;DHT22;16323;51.130;6.612;2022-12-10T06:21:16;15.60;38.60
29321;DHT22;16323;51.130;6.612;2022-12-10T06:23:43;15.60;38.60
29321;DHT22;16323;51.130;6.612;2022-12-10T06:26:12;15.60;38.40
29321;DHT22;16323;51.130;6.612;2022-12-10T06:28:39;15.60;38.50
29321;DHT22;16323;51.130;6.612;2022-12-10T06:31:06;15.50;38.50
29321;DHT22;16323;51.130;6.612;2022-12-10T06:33:34;15.50;38.50
29321;DHT22;16323;51.130;6.612;2022-12-10T06:36:04;15.50;38.50
29321;DHT22;16323;51.130;6.612;2022-12-10T06:38:32;15.50;38.50
29321;DHT22;16323;51.130;6.612;2022-12-10T06:40:59;15.50;38.50
29321;DHT22;16323;51.130;6.612;2022-12-10T06:43:28;15.50;38.50
29321;DHT22;16323;51.130;6.612;2022-12-10T06:45:55;15.50;38.50
29321;DHT22;16323;51.130;6.612;2022-12-10T06:48:22;15.50;38.60
29321;DHT22;16323;51.130;6.612;2022-12-10T06:50:49;15.50;38.40
29321;DHT22;16323;51.130;6.612;2022-12-10T06:53:17;15.50;38.60
29321;DHT22;16323;51.130;6.612;2022-12-10T06:55:44;15.50;38.60
29321;DHT22;16323;51.130;6.612;2022-12-10T06:58:11;15.50;38.70
29321;DHT22;16323;51.130;6.612;2022-12-10T07:00:37;15.50;40.60
29321;DHT22;16323;51.130;6.612;2022-12-10T07:03:04;15.50;42.00
29321;DHT22;16323;51.130;6.612;2022-12-10T07:05:31;15.60;40.70
29321;DHT22;16323;51.130;6.612;2022-12-10T07:07:58;15.60;40.30
29321;DHT22;16323;51.130;6.612;2022-12-10T07:10:26;15.60;40.00
29321;DHT22;16323;51.130;6.612;2022-12-10T07:12:53;15.60;40.00
29321;DHT22;16323;51.130;6.612;2022-12-10T07:15:20;15.60;39.80
29321;DHT22;16323;51.130;6.612;2022-12-10T07:17:50;15.60;39.70
29321;DHT22;16323;51.130;6.612;2022-12-10T07:20:16;15.60;39.40
29321;DHT22;16323;51.130;6.612;2022-12-10T07:22:43;15.50;39.30
29321;DHT22;16323;51.130;6.612;2022-12-10T07:25:10;15.50;39.30
29321;DHT22;16323;51.130;6.612;2022-12-10T07:27:38;15.50;39.30
29321;DHT22;16323;51.130;6.612;2022-12-10T07:30:06;15.50;39.30
29321;DHT22;16323;51.130;6.612;2022-12-10T07:32:33;15.50;39.30
29321;DHT22;16323;51.130;6.612;2022-12-10T07:35:00;15.50;39.40
29321;DHT22;16323;51.130;6.612;2022-12-10T07:37:27;15.50;39.40
29321;DHT22;16323;51.130;6.612;2022-12-10T07:39:54;15.50;39.50
29321;DHT22;16323;51.130;6.612;2022-12-10T07:42:21;15.50;39.50
29321;DHT22;16323;51.130;6.612;2022-12-10T07:44:49;15.50;39.50
29321;DHT22;16323;51.130;6.612;2022-12-10T07:47:16;15.50;39.50
29321;DHT22;16323;51.130;6.612;2022-12-10T07:49:43;15.50;39.60
29321;DHT22;16323;51.130;6.612;2022-12-10T07:52:10;15.50;39.50
29321;DHT22;16323;51.130;6.612;2022-12-10T07:54:37;15.40;39.40
29321;DHT22;16323;51.130;6.612;2022-12-10T07:57:04;15.50;39.50
29321;DHT22;16323;51.130;6.612;2022-12-10T07:59:30;15.50;40.60
29321;DHT22;16323;51.130;6.612;2022-12-10T08:02:00;15.50;39.30
29321;DHT22;16323;51.130;6.612;2022-12-10T08:04:28;15.50;39.50
29321;DHT22;16323;51.130;6.612;2022-12-10T08:06:55;15.50;39.30
29321;DHT22;16323;51.130;6.612;2022-12-10T08:09:22;15.50;39.40
29321;DHT22;16323;51.130;6.612;2022-12-10T08:11:49;15.50;39.20
29321;DHT22;16323;51.130;6.612;2022-12-10T08:14:15;15.50;39.30
29321;DHT22;16323;51.130;6.612;2022-12-10T08:16:42;15.50;39.30
29321;DHT22;16323;51.130;6.612;2022-12-10T08:19:10;15.60;40.90
29321;DHT22;16323;51.130;6.612;2022-12-10T08:21:37;15.60;39.70
29321;DHT22;16323;51.130;6.612;2022-12-10T08:24:05;15.60;39.70
29321;DHT22;16323;51.130;6.612;2022-12-10T08:26:33;15.50;39.40
29321;DHT22;16323;51.130;6.612;2022-12-10T08:29:00;15.50;39.50
29321;DHT22;16323;51.130;6.612;2022-12-10T08:31:27;15.50;39.30
29321;DHT22;16323;51.130;6.612;2022-12-10T08:33:54;15.50;39.20
29321;DHT22;16323;51.130;6.612;2022-12-10T08:36:23;15.50;39.30
29321;DHT22;16323;51.130;6.612;2022-12-10T08:38:49;15.50;39.20
29321;DHT22;16323;51.130;6.612;2022-12-10T08:41:18;15.50;39.20
29321;DHT22;16323;51.130;6.612;2022-12-10T08:43:46;15.50;39.20
29321;DHT22;16323;51.130;6.612;2022-12-10T08:46:14;15.50;39.70
29321;DHT22;16323;51.130;6.612;2022-12-10T08:48:41;15.50;39.20
29321;DHT22;16323;51.130;6.612;2022-12-10T08:51:10;15.50;39.20
29321;DHT22;16323;51.130;6.612;2022-12-10T08:53:39;15.50;39.20
29321;DHT22;16323;51.130;6.612;2022-12-10T08:56:06;15.50;39.10
29321;DHT22;16323;51.130;6.612;2022-12-10T08:58:33;15.50;39.20
29321;DHT22;16323;51.130;6.612;2022-12-10T09:01:07;15.50;39.10
29321;DHT22;16323;51.130;6.612;2022-12-10T09:03:34;15.60;40.50
29321;DHT22;16323;51.130;6.612;2022-12-10T09:06:05;15.60;39.40
29321;DHT22;16323;51.130;6.612;2022-12-10T09:08:32;15.60;39.30
29321;DHT22;16323;51.130;6.612;2022-12-10T09:11:06;15.60;39.20
29321;DHT22;16323;51.130;6.612;2022-12-10T09:13:33;15.60;39.40
29321;DHT22;16323;51.130;6.612;2022-12-10T09:15:59;15.60;39.40
29321;DHT22;16323;51.130;6.612;2022-12-10T09:18:26;15.60;39.40
29321;DHT22;16323;51.130;6.612;2022-12-10T09:20:53;15.60;39.40
29321;DHT22;16323;51.130;6.612;2022-12-10T09:23:20;15.60;39.30
29321;DHT22;16323;51.130;6.612;2022-12-10T09:25:47;15.60;39.50
29321;DHT22;16323;51.130;6.612;2022-12-10T09:28:15;15.60;39.30
29321;DHT22;16323;51.130;6.612;2022-12-10T09:30:42;15.60;41.40
29321;DHT22;16323;51.130;6.612;2022-12-10T09:33:08;15.70;41.30
29321;DHT22;16323;51.130;6.612;2022-12-10T09:35:39;15.70;40.70
29321;DHT22;16323;51.130;6.612;2022-12-10T09:38:07;15.60;39.20
29321;DHT22;16323;51.130;6.612;2022-12-10T09:40:38;15.50;39.10
29321;DHT22;16323;51.130;6.612;2022-12-10T09:43:16;15.50;38.90
29321;DHT22;16323;51.130;6.612;2022-12-10T09:45:52;15.50;38.70
29321;DHT22;16323;51.130;6.612;2022-12-10T09:48:28;15.50;38.60
29321;DHT22;16323;51.130;6.612;2022-12-10T09:51:03;15.40;38.60
29321;DHT22;16323;51.130;6.612;2022-12-10T09:53:32;15.50;39.80
29321;DHT22;16323;51.130;6.612;2022-12-10T09:56:01;15.50;39.00
29321;DHT22;16323;51.130;6.612;2022-12-10T09:58:30;15.50;38.90
29321;DHT22;16323;51.130;6.612;2022-12-10T10:00:58;15.50;38.90
29321;DHT22;16323;51.130;6.612;2022-12-10T10:03:26;15.50;39.00
29321;DHT22;16323;51.130;6.612;2022-12-10T10:05:54;15.50;42.70
29321;DHT22;16323;51.130;6.612;2022-12-10T10:08:27;15.50;41.80
29321;DHT22;16323;51.130;6.612;2022-12-10T10:10:55;15.50;41.00
29321;DHT22;16323;51.130;6.612;2022-12-10T10:13:31;15.50;40.60
29321;DHT22;16323;51.130;6.612;2022-12-10T10:16:13;15.60;40.60
29321;DHT22;16323;51.130;6.612;2022-12-10T10:18:46;15.60;40.30
29321;DHT22;16323;51.130;6.612;2022-12-10T10:21:19;15.60;40.30
29321;DHT22;16323;51.130;6.612;2022-12-10T10:23:47;15.60;40.20
29321;DHT22;16323;51.130;6.612;2022-12-10T10:26:14;15.60;40.00
29321;DHT22;16323;51.130;6.612;2022-12-10T10:28:43;15.70;40.00
29321;DHT22;16323;51.130;6.612;2022-12-10T10:31:18;15.70;40.00
29321;DHT22;16323;51.130;6.612;2022-12-10T10:33:49;15.70;39.90
29321;DHT22;16323;51.130;6.612;2022-12-10T10:36:16;15.70;39.90
29321;DHT22;16323;51.130;6.612;2022-12-10T10:38:47;15.70;39.70
29321;DHT22;16323;51.130;6.612;2022-12-10T10:41:15;15.70;39.70
29321;DHT22;16323;51.130;6.612;2022-12-10T10:43:44;15.70;39.80
29321;DHT22;16323;51.130;6.612;2022-12-10T10:46:14;15.70;39.70
29321;DHT22;16323;51.130;6.612;2022-12-10T10:48:41;15.70;39.60
29321;DHT22;16323;51.130;6.612;2022-12-10T10:51:15;15.80;39.80
29321;DHT22;16323;51.130;6.612;2022-12-10T10:53:47;15.70;39.70
29321;DHT22;16323;51.130;6.612;2022-12-10T10:56:17;15.70;39.50
29321;DHT22;16323;51.130;6.612;2022-12-10T10:58:52;15.80;39.40
29321;DHT22;16323;51.130;6.612;2022-12-10T11:01:20;15.70;39.20
29321;DHT22;16323;51.130;6.612;2022-12-10T11:03:48;15.70;39.00
29321;DHT22;16323;51.130;6.612;2022-12-10T11:06:16;15.70;38.90
29321;DHT22;16323;51.130;6.612;2022-12-10T11:08:45;15.70;38.90
29321;DHT22;16323;51.130;6.612;2022-12-10T11:11:17;15.70;39.10
29321;DHT22;16323;51.130;6.612;2022-12-10T11:13:45;15.70;39.10
29321;DHT22;16323;51.130;6.612;2022-12-10T11:16:19;15.70;39.20
29321;DHT22;16323;51.130;6.612;2022-12-10T11:18:55;15.60;39.10
29321;DHT22;16323;51.130;6.612;2022-12-10T11:21:28;15.60;39.20
29321;DHT22;16323;51.130;6.612;2022-12-10T11:23:56;15.60;39.20
29321;DHT22;16323;51.130;6.612;2022-12-10T11:26:42;15.60;39.20
29321;DHT22;16323;51.130;6.612;2022-12-10T11:29:23;15.60;39.20
29321;DHT22;16323;51.130;6.612;2022-12-10T11:32:02;15.60;39.40
29321;DHT22;16323;51.130;6.612;2022-12-10T11:34:41;15.70;39.50
29321;DHT22;16323;51.130;6.612;2022-12-10T11:37:18;15.70;39.60
29321;DHT22;16323;51.130;6.612;2022-12-10T11:40:03;15.70;39.30
29321;DHT22;16323;51.130;6.612;2022-12-10T11:42:41;15.70;39.30
29321;DHT22;16323;51.130;6.612;2022-12-10T11:45:17;15.70;42.50
29321;DHT22;16323;51.130;6.612;2022-12-10T11:47:58;15.70;42.60
29321;DHT22;16323;51.130;6.612;2022-12-10T11:50:35;15.70;43.60
29321;DHT22;16323;51.130;6.612;2022-12-10T11:53:13;15.70;46.10
29321;DHT22;16323;51.130;6.612;2022-12-10T11:55:48;15.70;45.60
29321;DHT22;16323;51.130;6.612;2022-12-10T11:58:37;15.60;45.60
29321;DHT22;16323;51.130;6.612;2022-12-10T12:01:11;15.60;45.50
29321;DHT22;16323;51.130;6.612;2022-12-10T12:04:00;15.50;45.90
29321;DHT22;16323;51.130;6.612;2022-12-10T12:06:44;15.50;45.90
29321;DHT22;16323;51.130;6.612;2022-12-10T12:09:20;15.50;46.00
29321;DHT22;16323;51.130;6.612;2022-12-10T12:12:00;15.50;46.00
29321;DHT22;16323;51.130;6.612;2022-12-10T12:14:34;15.40;46.30
29321;DHT22;16323;51.130;6.612;2022-12-10T12:17:06;15.40;46.40
29321;DHT22;16323;51.130;6.612;2022-12-10T12:19:39;15.40;46.60
29321;DHT22;16323;51.130;6.612;2022-12-10T12:22:13;15.40;46.90
29321;DHT22;16323;51.130;6.612;2022-12-10T12:24:42;15.50;46.90
29321;DHT22;16323;51.130;6.612;2022-12-10T12:27:16;15.40;46.80
29321;DHT22;16323;51.130;6.612;2022-12-10T12:29:53;15.50;47.20
29321;DHT22;16323;51.130;6.612;2022-12-10T12:32:27;15.50;47.10
29321;DHT22;16323;51.130;6.612;2022-12-10T12:35:00;15.50;47.40
29321;DHT22;16323;51.130;6.612;2022-12-10T12:37:34;15.50;47.60
29321;DHT22;16323;51.130;6.612;2022-12-10T12:40:10;15.50;47.80
29321;DHT22;16323;51.130;6.612;2022-12-10T12:42:42;15.50;48.20
29321;DHT22;16323;51.130;6.612;2022-12-10T12:45:14;15.50;47.40
29321;DHT22;16323;51.130;6.612;2022-12-10T12:47:46;15.50;47.70
29321;DHT22;16323;51.130;6.612;2022-12-10T12:50:24;15.50;49.80
29321;DHT22;16323;51.130;6.612;2022-12-10T12:52:54;15.80;54.90
29321;DHT22;16323;51.130;6.612;2022-12-10T12:55:29;15.90;54.00
29321;DHT22;16323;51.130;6.612;2022-12-10T12:58:10;15.80;50.10
29321;DHT22;16323;51.130;6.612;2022-12-10T13:00:39;15.70;50.00
29321;DHT22;16323;51.130;6.612;2022-12-10T13:03:20;15.60;49.70
29321;DHT22;16323;51.130;6.612;2022-12-10T13:05:52;15.60;48.50
29321;DHT22;16323;51.130;6.612;2022-12-10T13:08:29;15.60;48.70
29321;DHT22;16323;51.130;6.612;2022-12-10T13:11:14;15.60;48.50
29321;DHT22;16323;51.130;6.612;2022-12-10T13:14:13;15.60;48.50
29321;DHT22;16323;51.130;6.612;2022-12-10T13:16:50;15.60;48.50
29321;DHT22;16323;51.130;6.612;2022-12-10T13:19:30;15.60;48.10
29321;DHT22;16323;51.130;6.612;2022-12-10T13:22:08;15.60;47.70
29321;DHT22;16323;51.130;6.612;2022-12-10T13:24:47;15.60;47.70
29321;DHT22;16323;51.130;6.612;2022-12-10T13:27:29;15.60;47.60
29321;DHT22;16323;51.130;6.612;2022-12-10T13:30:03;15.70;47.70
29321;DHT22;16323;51.130;6.612;2022-12-10T13:32:45;15.70;47.70
29321;DHT22;16323;51.130;6.612;2022-12-10T13:35:24;15.60;47.50
29321;DHT22;16323;51.130;6.612;2022-12-10T13:38:04;15.70;47.70
29321;DHT22;16323;51.130;6.612;2022-12-10T13:40:40;15.70;47.50
29321;DHT22;16323;51.130;6.612;2022-12-10T13:43:27;15.70;47.40
29321;DHT22;16323;51.130;6.612;2022-12-10T13:46:30;15.70;47.60
29321;DHT22;16323;51.130;6.612;2022-12-10T13:48:57;15.70;47.30
29321;DHT22;16323;51.130;6.612;2022-12-10T13:51:44;15.70;47.30
29321;DHT22;16323;51.130;6.612;2022-12-10T13:54:33;15.70;47.20
29321;DHT22;16323;51.130;6.612;2022-12-10T13:57:14;15.70;46.90
29321;DHT22;16323;51.130;6.612;2022-12-10T13:59:49;15.70;47.10
29321;DHT22;16323;51.130;6.612;2022-12-10T14:02:35;15.70;47.30
29321;DHT22;16323;51.130;6.612;2022-12-10T14:05:23;15.70;47.10
29321;DHT22;16323;51.130;6.612;2022-12-10T14:07:56;15.70;47.10
29321;DHT22;16323;51.130;6.612;2022-12-10T14:10:32;15.70;47.20
29321;DHT22;16323;51.130;6.612;2022-12-10T14:13:02;15.70;47.10
29321;DHT22;16323;51.130;6.612;2022-12-10T14:15:37;15.70;47.00
29321;DHT22;16323;51.130;6.612;2022-12-10T14:18:10;15.70;46.90
29321;DHT22;16323;51.130;6.612;2022-12-10T14:20:42;15.70;47.00
29321;DHT22;16323;51.130;6.612;2022-12-10T14:23:22;15.70;46.70
29321;DHT22;16323;51.130;6.612;2022-12-10T14:26:39;15.70;47.00
29321;DHT22;16323;51.130;6.612;2022-12-10T14:29:18;15.70;46.90
29321;DHT22;16323;51.130;6.612;2022-12-10T14:31:48;15.70;51.80
29321;DHT22;16323;51.130;6.612;2022-12-10T14:34:18;15.70;50.00
29321;DHT22;16323;51.130;6.612;2022-12-10T14:36:47;15.70;49.10
29321;DHT22;16323;51.130;6.612;2022-12-10T14:39:16;15.70;48.70
29321;DHT22;16323;51.130;6.612;2022-12-10T14:41:47;15.70;48.10
29321;DHT22;16323;51.130;6.612;2022-12-10T14:44:16;15.70;47.70
29321;DHT22;16323;51.130;6.612;2022-12-10T14:46:46;15.70;47.60
29321;DHT22;16323;51.130;6.612;2022-12-10T14:49:16;15.60;47.70
29321;DHT22;16323;51.130;6.612;2022-12-10T14:51:43;15.60;47.30
29321;DHT22;16323;51.130;6.612;2022-12-10T14:54:25;15.60;47.10
29321;DHT22;16323;51.130;6.612;2022-12-10T14:56:54;15.60;47.00
29321;DHT22;16323;51.130;6.612;2022-12-10T14:59:28;15.60;47.00
29321;DHT22;16323;51.130;6.612;2022-12-10T15:02:01;15.60;46.90
29321;DHT22;16323;51.130;6.612;2022-12-10T15:04:40;15.60;46.80
29321;DHT22;16323;51.130;6.612;2022-12-10T15:07:12;15.60;46.90
29321;DHT22;16323;51.130;6.612;2022-12-10T15:09:40;15.60;46.90
29321;DHT22;16323;51.130;6.612;2022-12-10T15:15:07;15.70;48.50
29321;DHT22;16323;51.130;6.612;2022-12-10T15:17:40;15.60;47.40
29321;DHT22;16323;51.130;6.612;2022-12-10T15:20:25;15.70;47.20
29321;DHT22;16323;51.130;6.612;2022-12-10T15:22:53;15.60;47.00
29321;DHT22;16323;51.130;6.612;2022-12-10T15:25:23;15.70;47.10
29321;DHT22;16323;51.130;6.612;2022-12-10T15:28:22;15.60;47.00
29321;DHT22;16323;51.130;6.612;2022-12-10T15:30:50;15.70;47.40
29321;DHT22;16323;51.130;6.612;2022-12-10T15:33:30;15.70;47.20
29321;DHT22;16323;51.130;6.612;2022-12-10T15:35:59;15.70;47.40
29321;DHT22;16323;51.130;6.612;2022-12-10T15:38:26;15.70;47.40
29321;DHT22;16323;51.130;6.612;2022-12-10T15:40:58;15.70;47.30
29321;DHT22;16323;51.130;6.612;2022-12-10T15:43:28;15.70;47.40
29321;DHT22;16323;51.130;6.612;2022-12-10T15:46:04;15.70;47.00
29321;DHT22;16323;51.130;6.612;2022-12-10T15:48:31;15.70;46.60
29321;DHT22;16323;51.130;6.612;2022-12-10T15:50:58;15.70;46.30
29321;DHT22;16323;51.130;6.612;2022-12-10T15:53:27;15.60;46.20
29321;DHT22;16323;51.130;6.612;2022-12-10T15:55:55;15.60;46.20
29321;DHT22;16323;51.130;6.612;2022-12-10T15:58:21;15.70;46.20